• Join FlightAware (Why Join?)
  • Login
  • US Flag 
12:01AM EDT


 

Airport Tracker/Info


-or-


 

Live Flight TrackerFlight Track Log ✈ CHQ4986 ✈ 19-Oct-2013 ✈ KALB - KORD

Flight Track Log - Related Links

Times and Time Zones

All times are in EDT time to prevent confusion due to time zone crossing. See the CHQ4986 flight status page for this flight to view local times or setup timezone preferences in your user account.

Time Position Orientation Groundspeed Altitude Reporting Facility
EDT Latitude Longitude Course Direction KTS MPH feet Rate Location/Type
02:47PM 42.7512 -74.1563 285° West  Level Estimated
02:48PM 42.7516 -74.2745 283° West  Level Estimated
02:49PM 42.7966 -74.3755 301° West  Level FlightAware Approximate
02:49PM 42.8378 -74.1447 285° West 260 299 11,300  Level Boston Center
02:50PM 42.7965 -74.4937 281° West  Level Estimated
02:50PM 42.9011 -74.2369 313° West 285 328 12,600  Level Boston Center
02:51PM 42.8317 -74.6018 294° West  Level FlightAware Approximate
02:51PM 42.9558 -74.3181 313° West 313 360 13,900  Level Boston Center
02:52PM 42.8667 -74.7100 294° West  Level FlightAware Approximate
02:52PM 43.0106 -74.4247 305° West 323 372 15,300  Level Boston Center
02:53PM 42.8656 -74.8284 285° West  Level Estimated
02:53PM 43.0272 -74.5275 283° West 310 357 16,500  Level Boston Center
02:54PM 42.8644 -74.9467 283° West  Level Estimated
02:54PM 43.0397 -74.6503 278° West 310 357 18,000  Level Boston Center
02:55PM 42.8630 -75.0650 285° West  Level Estimated
02:55PM 43.0497 -74.7672 277° West 316 364 19,900  Level Boston Center
02:56PM 43.0581 -74.8725 276° West 303 349 21,400 1,380 Climbing Boston Center
02:57PM 43.0661 -74.9808 276° West 297 342 22,700 1,200 Climbing Boston Center
02:58PM 43.0761 -75.0922 277° West 297 342 23,900 1,140 Climbing Boston Center
02:59PM 43.0858 -75.2036 277° West 297 342 25,000 1,260 Climbing Boston Center
03:00PM 43.0936 -75.3119 276° West 297 342 26,500 1,320 Climbing Boston Center
03:01PM 43.1014 -75.4147 276° West 292 336 27,700 1,020 Climbing Boston Center
03:02PM 43.1111 -75.5206 277° West 292 336 28,600 840 Climbing Boston Center
03:03PM 43.1167 -75.6231 274° West 286 329 29,400 660 Climbing Boston Center
03:04PM 43.1239 -75.7317 275° West 286 329 30,000 240 Climbing Boston Center
03:05PM 43.1353 -75.8489 278° West 299 344 30,000 360 Level Boston Center
03:06PM 43.1442 -75.9661 276° West 309 356 30,800 1,200 Climbing Boston Center
03:07PM 43.1531 -76.0778 276° West 309 356 32,400 1,020 Climbing Boston Center
03:10PM 43.1603 -76.3186 272° West 288 331 34,200 780 Climbing Cleveland Center
03:11PM 43.1581 -76.4253 268° West 283 326 35,000 660 Climbing Cleveland Center
03:12PM 43.1575 -76.5328 270° West 283 326 35,600 480 Climbing Cleveland Center
03:13PM 43.1572 -76.6428 270° West 286 329 36,000 180 Climbing Cleveland Center
03:14PM 43.1558 -76.7825 269° West 305 351 36,000  Level Cleveland Center
03:15PM 43.1542 -76.9028 269° West 316 364 36,000  Level Cleveland Center
03:16PM 43.1528 -77.0281 269° West 328 377 36,000  Level Cleveland Center
03:17PM 43.1522 -77.1533 270° West 332 382 36,000  Level Cleveland Center
03:18PM 43.1506 -77.2817 269° West 338 389 36,000  Level Cleveland Center
03:19PM 43.1483 -77.4369 269° West 342 394 36,000  Level Cleveland Center
03:20PM 43.1464 -77.5697 269° West 349 402 36,000  Level Cleveland Center
03:21PM 43.1447 -77.7000 269° West 347 399 36,000  Level Cleveland Center
03:22PM 43.1428 -77.8286 269° West 342 394 36,000  Level Cleveland Center
03:23PM 43.1394 -77.9558 268° West 339 390 36,000  Level Cleveland Center
03:24PM 43.1375 -78.0836 269° West 338 389 36,000  Level Cleveland Center
03:25PM 43.1347 -78.2344 269° West 335 386 36,000  Level Cleveland Center
03:26PM 43.1319 -78.3617 268° West 335 386 36,000  Level Cleveland Center
03:27PM 43.1289 -78.4911 268° West 339 390 36,000  Level Cleveland Center
03:28PM 43.1253 -78.6247 268° West 351 404 36,000  Level Cleveland Center
03:29PM 43.1219 -78.7494 268° West 334 384 36,000  Level Cleveland Center
03:30PM 43.1194 -78.8744 268° West 328 377 36,000  Level Cleveland Center
03:31PM 43.1150 -79.0269 268° West 337 388 36,000  Level Cleveland Center
03:32PM 43.1119 -79.1567 268° West 341 392 36,000  Level Cleveland Center
03:33PM 43.1078 -79.2897 268° West 349 402 36,000  Level Cleveland Center
03:34PM 43.1042 -79.4258 268° West 358 412 36,000  Level Cleveland Center
03:35PM 43.1000 -79.5617 268° West 357 411 36,000  Level Cleveland Center
03:36PM 43.0956 -79.6983 267° West 362 417 36,000  Level Cleveland Center
03:37PM 43.0892 -79.8611 267° West 357 411 36,000  Level Cleveland Center
03:39PM 43.0864 -79.9819 268° West 362 417 36,000  Level Cleveland Center
03:40PM 43.0800 -80.1225 266° West 369 425 36,000  Level Cleveland Center
03:41PM 43.0733 -80.2872 267° West 371 427 36,000  Level Cleveland Center
03:42PM 43.0667 -80.4333 266° West 380 437 36,000  Level Toronto Center
03:43PM 43.0500 -80.5667 260° West 370 426 36,000  Level Toronto Center
03:45PM 43.0492 -80.8556 270° West 366 421 36,000  Level Cleveland Center
03:46PM 43.0333 -80.9833 260° West 360 414 36,000  Level Toronto Center
03:47PM 43.0167 -81.1167 260° West 370 426 36,000  Level Toronto Center
03:48PM 43.0167 -81.2500 270° West 370 426 36,000  Level Toronto Center
03:49PM 43.0167 -81.4167 270° West 380 437 36,000  Level Toronto Center
03:50PM 43.0167 -81.5500 270° West 380 437 36,000  Level Toronto Center
03:51PM 43.0167 -81.6833 270° West 370 426 36,000  Level Toronto Center
03:52PM 43.0167 -81.8167 270° West 370 426 36,000  Level Toronto Center
03:53PM 43.0000 -81.9667 261° West 380 437 36,000  Level Toronto Center
03:54PM 43.0000 -82.1167 270° West 380 437 36,000  Level Toronto Center
03:55PM 43.0000 -82.2500 270° West 380 437 36,000  Level Toronto Center
03:56PM 43.0000 -82.4167 270° West 380 437 36,000  Level Toronto Center
03:57PM 43.0000 -82.5500 270° West 380 437 36,000  Level Toronto Center
03:58PM 42.9833 -82.6833 260° West 380 437 36,000  Level Toronto Center
03:58PM 42.9978 -82.7525 286° West 379 436 36,000  Level Cleveland Center
03:59PM 42.9936 -82.9281 268° West 387 445 36,000  Level Cleveland Center
04:00PM 42.9886 -83.0719 267° West 384 442 36,000  Level Cleveland Center
04:01PM 42.9833 -83.2158 267° West 381 438 36,000  Level Cleveland Center
04:02PM 42.9783 -83.3594 267° West 385 443 36,000  Level Cleveland Center
04:03PM 42.9744 -83.5014 268° West 379 436 36,000  Level Cleveland Center
04:04PM 42.9692 -83.6456 267° West 383 441 36,000  Level Cleveland Center
04:05PM 42.9586 -83.8147 265° West 377 434 36,000  Level Cleveland Center
04:06PM 42.9453 -83.9539 263° West 374 430 36,000  Level Cleveland Center
04:07PM 42.9311 -84.0953 262° West 379 436 36,000 -60 Level Cleveland Center
04:08PM 42.9175 -84.2372 263° West 380 437 35,900 -1,020 Descending Cleveland Center
04:09PM 42.9036 -84.3925 263° West 375 432 34,000 -1,800 Descending Cleveland Center
04:11PM 42.8892 -84.5325 262° West 374 430 32,300 -1,020 Descending Cleveland Center
04:12PM 42.8756 -84.6706 262° West 369 425 32,000 -180 Descending Cleveland Center
04:13PM 42.8603 -84.8117 262° West 376 433 32,000  Level Cleveland Center
04:14PM 42.8456 -84.9567 262° West 385 443 32,000  Level Cleveland Center
04:15PM 42.8278 -85.1319 262° West 390 449 32,000 -240 Level Cleveland Center
04:16PM 42.8111 -85.2783 261° West 391 450 31,600 -1,440 Descending Cleveland Center
04:21PM 42.6980 -85.9840 261° West 100 115 23,200 -1,740 Descending FlightAware
04:22PM 42.6810 -86.0790 256° West 380 437 21,600 -1,800 Descending FlightAware
04:22PM 42.6770 -86.1040 258° West 375 432 21,600 -960 Level FlightAware
04:23PM 42.6570 -86.2080 255° West 367 422 20,600 -240 Descending FlightAware
04:23PM 42.6390 -86.3060 256° West 370 426 21,300 -480 Climbing FlightAware
04:24PM 42.6240 -86.3860 256° West 370 426 20,000 -2,700 Descending FlightAware
04:25PM 42.6060 -86.4760 255° West 416 479 17,700 -2,700 Descending FlightAware
04:25PM 42.5930 -86.5550 257° West 275 316 16,600 -900 Descending FlightAware
04:26PM 42.5890 -86.6090 264° West 275 316 16,600 -2,220 Level FlightAware
04:26PM 42.5650 -86.6960 249° West 275 316 14,200 -2,100 Descending FlightAware
04:27PM 42.5540 -86.7650 258° West 275 316 14,100 -120 Descending FlightAware
04:28PM 42.5460 -86.8180 258° West 275 316 14,100  Level FlightAware
04:28PM 42.5380 -86.8700 258° West 275 316 14,100 -1,620 Level FlightAware
04:30PM 42.4510 -87.1270 245° Southwest 275 316 10,100 -1,860 Descending FlightAware
04:30PM 42.4420 -87.1580 249° West 265 305 10,000 -180 Descending FlightAware
04:31PM 42.4310 -87.1920 246° West 265 305 10,000  Level FlightAware
04:31PM 42.4210 -87.2230 246° West 265 305 10,000  Level FlightAware
04:32PM 42.4110 -87.2550 247° West 265 305 10,000  Level FlightAware
04:32PM 42.4060 -87.2710 247° West 265 305 10,000  Level FlightAware
04:32PM 42.3960 -87.3020 246° West 265 305 10,000 -1,800 Level FlightAware
04:34PM 42.2167 -87.2833 246° West 254 292 7,000 -1,440 Descending Chicago TRACON
04:35PM 42.1667 -87.3333 217° Southwest 258 297 6,900 -420 Descending Chicago TRACON
04:36PM 42.1167 -87.4000 225° Southwest 249 287 6,300 -480 Descending Chicago TRACON
04:36PM 42.0667 -87.4500 217° Southwest 238 274 6,000 -600 Descending Chicago TRACON
04:37PM 42.0333 -87.5167 236° Southwest 237 273 5,200 -960 Descending Chicago TRACON
04:38PM 41.9833 -87.5833 225° Southwest 233 268 4,100 -660 Descending Chicago TRACON
04:39PM 41.9833 -87.6500 270° West 187 215 4,000 -480 Descending Chicago TRACON
04:40PM 41.9833 -87.7167 270° West 187 215 3,200 -900 Descending Chicago TRACON
04:41PM 41.9833 -87.7833 270° West 173 199 2,200 -900 Descending Chicago TRACON
04:42PM 41.9833 -87.8333 270° West 137 158 1,500 -720 Descending Chicago TRACON